sensor_id;sensor_type;location;lat;lon;timestamp;pressure;altitude;pressure_sealevel;temperature
45034;BMP280;30771;47.988;-4.186;2023-05-02T05:14:09;99238.00;;;9.05
45034;BMP280;30771;47.988;-4.186;2023-05-02T05:16:34;99247.47;;;9.06
45034;BMP280;30771;47.988;-4.186;2023-05-02T05:18:59;99237.53;;;9.08
45034;BMP280;30771;47.988;-4.186;2023-05-02T05:21:24;99244.19;;;9.11
45034;BMP280;30771;47.988;-4.186;2023-05-02T05:23:50;99244.75;;;9.13
45034;BMP280;30771;47.988;-4.186;2023-05-02T05:26:15;99242.50;;;9.16
45034;BMP280;30771;47.988;-4.186;2023-05-02T05:28:41;99247.13;;;9.21
45034;BMP280;30771;47.988;-4.186;2023-05-02T05:31:06;99244.03;;;9.24
45034;BMP280;30771;47.988;-4.186;2023-05-02T05:33:32;99243.97;;;9.31
45034;BMP280;30771;47.988;-4.186;2023-05-02T05:38:28;99244.63;;;9.44
45034;BMP280;30771;47.988;-4.186;2023-05-02T05:40:53;99247.97;;;9.51
45034;BMP280;30771;47.988;-4.186;2023-05-02T05:43:19;99244.00;;;9.60
45034;BMP280;30771;47.988;-4.186;2023-05-02T05:45:44;99238.78;;;9.72
45034;BMP280;30771;47.988;-4.186;2023-05-02T05:48:09;99230.16;;;9.83
45034;BMP280;30771;47.988;-4.186;2023-05-02T05:50:34;99226.09;;;9.98
45034;BMP280;30771;47.988;-4.186;2023-05-02T05:52:59;99223.81;;;10.13
45034;BMP280;30771;47.988;-4.186;2023-05-02T05:55:26;99226.03;;;10.28
45034;BMP280;30771;47.988;-4.186;2023-05-02T05:57:51;99227.28;;;10.37
45034;BMP280;30771;47.988;-4.186;2023-05-02T06:00:16;99238.50;;;10.44
45034;BMP280;30771;47.988;-4.186;2023-05-02T06:02:41;99240.44;;;10.49
45034;BMP280;30771;47.988;-4.186;2023-05-02T06:05:06;99242.75;;;10.57
45034;BMP280;30771;47.988;-4.186;2023-05-02T06:07:32;99249.25;;;10.66
45034;BMP280;30771;47.988;-4.186;2023-05-02T06:09:57;99237.69;;;10.78
45034;BMP280;30771;47.988;-4.186;2023-05-02T06:12:22;99224.41;;;10.85
45034;BMP280;30771;47.988;-4.186;2023-05-02T06:14:47;99231.34;;;11.02
45034;BMP280;30771;47.988;-4.186;2023-05-02T06:17:12;99228.13;;;11.12
45034;BMP280;30771;47.988;-4.186;2023-05-02T06:19:38;99221.22;;;11.23
45034;BMP280;30771;47.988;-4.186;2023-05-02T06:22:03;99220.38;;;11.34
45034;BMP280;30771;47.988;-4.186;2023-05-02T06:24:28;99225.28;;;11.42
45034;BMP280;30771;47.988;-4.186;2023-05-02T06:26:53;99222.19;;;11.45
45034;BMP280;30771;47.988;-4.186;2023-05-02T06:29:18;99225.38;;;11.47
45034;BMP280;30771;47.988;-4.186;2023-05-02T06:31:43;99221.00;;;11.52
45034;BMP280;30771;47.988;-4.186;2023-05-02T06:34:08;99225.34;;;11.58
45034;BMP280;30771;47.988;-4.186;2023-05-02T06:36:34;99225.22;;;11.65
45034;BMP280;30771;47.988;-4.186;2023-05-02T06:38:59;99226.66;;;11.72
45034;BMP280;30771;47.988;-4.186;2023-05-02T06:41:24;99231.66;;;11.74
45034;BMP280;30771;47.988;-4.186;2023-05-02T06:43:49;99232.97;;;11.71
45034;BMP280;30771;47.988;-4.186;2023-05-02T06:46:14;99239.75;;;11.67
45034;BMP280;30771;47.988;-4.186;2023-05-02T06:48:39;99242.03;;;11.64
45034;BMP280;30771;47.988;-4.186;2023-05-02T06:51:04;99239.88;;;11.61
45034;BMP280;30771;47.988;-4.186;2023-05-02T06:53:30;99238.38;;;11.65
45034;BMP280;30771;47.988;-4.186;2023-05-02T06:55:55;99245.13;;;11.72
45034;BMP280;30771;47.988;-4.186;2023-05-02T06:58:20;99230.59;;;11.86
45034;BMP280;30771;47.988;-4.186;2023-05-02T07:00:45;99226.09;;;12.03
45034;BMP280;30771;47.988;-4.186;2023-05-02T07:03:11;99224.53;;;12.19
45034;BMP280;30771;47.988;-4.186;2023-05-02T07:05:36;99220.50;;;12.33
45034;BMP280;30771;47.988;-4.186;2023-05-02T07:08:01;99211.78;;;12.49
45034;BMP280;30771;47.988;-4.186;2023-05-02T07:10:26;99211.19;;;12.64
45034;BMP280;30771;47.988;-4.186;2023-05-02T07:12:51;99206.81;;;12.74
45034;BMP280;30771;47.988;-4.186;2023-05-02T07:15:16;99192.47;;;12.87
45034;BMP280;30771;47.988;-4.186;2023-05-02T07:17:42;99202.66;;;13.00
45034;BMP280;30771;47.988;-4.186;2023-05-02T07:20:07;99199.16;;;13.16
45034;BMP280;30771;47.988;-4.186;2023-05-02T07:22:32;99195.38;;;13.34
45034;BMP280;30771;47.988;-4.186;2023-05-02T07:24:59;99188.34;;;13.49
45034;BMP280;30771;47.988;-4.186;2023-05-02T07:27:24;99179.78;;;13.64
45034;BMP280;30771;47.988;-4.186;2023-05-02T07:29:49;99173.75;;;13.73
45034;BMP280;30771;47.988;-4.186;2023-05-02T07:32:15;99163.28;;;13.83
45034;BMP280;30771;47.988;-4.186;2023-05-02T07:34:40;99159.63;;;13.94
45034;BMP280;30771;47.988;-4.186;2023-05-02T07:37:05;99153.91;;;14.07
45034;BMP280;30771;47.988;-4.186;2023-05-02T07:39:31;99155.81;;;14.22
45034;BMP280;30771;47.988;-4.186;2023-05-02T07:41:56;99148.25;;;14.40
45034;BMP280;30771;47.988;-4.186;2023-05-02T07:44:21;99138.75;;;14.55
45034;BMP280;30771;47.988;-4.186;2023-05-02T07:46:47;99150.75;;;14.72
45034;BMP280;30771;47.988;-4.186;2023-05-02T07:49:12;99153.19;;;14.89
45034;BMP280;30771;47.988;-4.186;2023-05-02T07:51:37;99148.44;;;15.06
45034;BMP280;30771;47.988;-4.186;2023-05-02T07:54:02;99158.56;;;15.19
45034;BMP280;30771;47.988;-4.186;2023-05-02T07:56:38;99169.44;;;15.37
45034;BMP280;30771;47.988;-4.186;2023-05-02T07:59:03;99175.84;;;15.51
45034;BMP280;30771;47.988;-4.186;2023-05-02T08:01:28;99181.94;;;15.62
45034;BMP280;30771;47.988;-4.186;2023-05-02T08:03:53;99193.31;;;15.73
45034;BMP280;30771;47.988;-4.186;2023-05-02T08:06:19;99204.47;;;15.80
45034;BMP280;30771;47.988;-4.186;2023-05-02T08:08:44;99225.16;;;15.93
45034;BMP280;30771;47.988;-4.186;2023-05-02T08:11:09;99238.97;;;16.05
45034;BMP280;30771;47.988;-4.186;2023-05-02T08:13:34;99260.19;;;16.20
45034;BMP280;30771;47.988;-4.186;2023-05-02T08:15:59;99282.75;;;16.37
45034;BMP280;30771;47.988;-4.186;2023-05-02T08:18:24;99318.31;;;16.46
45034;BMP280;30771;47.988;-4.186;2023-05-02T08:20:49;99333.19;;;16.57
45034;BMP280;30771;47.988;-4.186;2023-05-02T08:23:15;99354.69;;;16.71
45034;BMP280;30771;47.988;-4.186;2023-05-02T08:25:40;99378.31;;;16.82
45034;BMP280;30771;47.988;-4.186;2023-05-02T08:28:05;99406.19;;;16.90
45034;BMP280;30771;47.988;-4.186;2023-05-02T08:30:30;99441.81;;;16.99
45034;BMP280;30771;47.988;-4.186;2023-05-02T08:32:55;99470.28;;;17.09
45034;BMP280;30771;47.988;-4.186;2023-05-02T08:35:20;99498.72;;;17.13
45034;BMP280;30771;47.988;-4.186;2023-05-02T08:37:46;99516.22;;;17.24
45034;BMP280;30771;47.988;-4.186;2023-05-02T08:40:11;99530.59;;;17.38
45034;BMP280;30771;47.988;-4.186;2023-05-02T08:42:36;99540.38;;;17.58
45034;BMP280;30771;47.988;-4.186;2023-05-02T08:45:05;99547.78;;;17.76
45034;BMP280;30771;47.988;-4.186;2023-05-02T08:47:32;99581.00;;;17.88
45034;BMP280;30771;47.988;-4.186;2023-05-02T08:49:57;99614.28;;;17.96
45034;BMP280;30771;47.988;-4.186;2023-05-02T08:52:23;99652.09;;;18.03
45034;BMP280;30771;47.988;-4.186;2023-05-02T08:54:48;99666.19;;;18.13
45034;BMP280;30771;47.988;-4.186;2023-05-02T08:57:14;99668.22;;;18.31
45034;BMP280;30771;47.988;-4.186;2023-05-02T08:59:41;99691.09;;;18.48
45034;BMP280;30771;47.988;-4.186;2023-05-02T09:02:11;99707.56;;;18.60
45034;BMP280;30771;47.988;-4.186;2023-05-02T09:04:41;99750.44;;;18.68
45034;BMP280;30771;47.988;-4.186;2023-05-02T09:07:07;99778.41;;;18.76
45034;BMP280;30771;47.988;-4.186;2023-05-02T09:09:32;99806.69;;;18.82
45034;BMP280;30771;47.988;-4.186;2023-05-02T09:11:57;99815.97;;;18.94
45034;BMP280;30771;47.988;-4.186;2023-05-02T09:14:23;99819.88;;;19.12
45034;BMP280;30771;47.988;-4.186;2023-05-02T09:16:48;99845.13;;;19.24
45034;BMP280;30771;47.988;-4.186;2023-05-02T09:19:22;99862.44;;;19.32
45034;BMP280;30771;47.988;-4.186;2023-05-02T09:21:47;99886.94;;;19.44
45034;BMP280;30771;47.988;-4.186;2023-05-02T09:24:16;99905.06;;;19.52
45034;BMP280;30771;47.988;-4.186;2023-05-02T09:26:42;99932.78;;;19.61
45034;BMP280;30771;47.988;-4.186;2023-05-02T09:29:07;99961.06;;;19.67
45034;BMP280;30771;47.988;-4.186;2023-05-02T09:31:33;99978.09;;;19.76
45034;BMP280;30771;47.988;-4.186;2023-05-02T09:34:08;99997.31;;;19.83
45034;BMP280;30771;47.988;-4.186;2023-05-02T09:36:38;100029.66;;;19.81
45034;BMP280;30771;47.988;-4.186;2023-05-02T09:39:07;100045.13;;;19.84
45034;BMP280;30771;47.988;-4.186;2023-05-02T09:41:45;100051.00;;;19.92
45034;BMP280;30771;47.988;-4.186;2023-05-02T09:44:11;100067.50;;;19.99
45034;BMP280;30771;47.988;-4.186;2023-05-02T09:46:43;100061.59;;;20.07
45034;BMP280;30771;47.988;-4.186;2023-05-02T09:49:09;100084.50;;;20.18
45034;BMP280;30771;47.988;-4.186;2023-05-02T09:51:34;100090.59;;;20.28
45034;BMP280;30771;47.988;-4.186;2023-05-02T09:53:59;100137.63;;;20.34
45034;BMP280;30771;47.988;-4.186;2023-05-02T09:56:24;100169.97;;;20.38
45034;BMP280;30771;47.988;-4.186;2023-05-02T09:58:49;100184.69;;;20.35
45034;BMP280;30771;47.988;-4.186;2023-05-02T10:01:15;100189.22;;;20.40
45034;BMP280;30771;47.988;-4.186;2023-05-02T10:03:40;100180.59;;;20.48
45034;BMP280;30771;47.988;-4.186;2023-05-02T10:06:07;100204.09;;;20.56
45034;BMP280;30771;47.988;-4.186;2023-05-02T10:08:32;100201.38;;;20.66
45034;BMP280;30771;47.988;-4.186;2023-05-02T10:10:58;100198.84;;;20.79
45034;BMP280;30771;47.988;-4.186;2023-05-02T10:13:24;100220.81;;;20.81
45034;BMP280;30771;47.988;-4.186;2023-05-02T10:15:53;100238.97;;;20.89
45034;BMP280;30771;47.988;-4.186;2023-05-02T10:18:20;100251.97;;;21.01
45034;BMP280;30771;47.988;-4.186;2023-05-02T10:20:51;100253.75;;;21.15
45034;BMP280;30771;47.988;-4.186;2023-05-02T10:23:17;100273.63;;;21.09
45034;BMP280;30771;47.988;-4.186;2023-05-02T10:25:42;100296.78;;;20.90
45034;BMP280;30771;47.988;-4.186;2023-05-02T10:28:08;100306.94;;;20.88
45034;BMP280;30771;47.988;-4.186;2023-05-02T10:30:33;100331.06;;;20.83
45034;BMP280;30771;47.988;-4.186;2023-05-02T10:32:59;100335.34;;;20.84
45034;BMP280;30771;47.988;-4.186;2023-05-02T10:35:24;100332.31;;;20.96
45034;BMP280;30771;47.988;-4.186;2023-05-02T10:37:49;100357.75;;;20.98
45034;BMP280;30771;47.988;-4.186;2023-05-02T10:40:15;100382.47;;;20.90
45034;BMP280;30771;47.988;-4.186;2023-05-02T10:42:41;100386.72;;;20.91
45034;BMP280;30771;47.988;-4.186;2023-05-02T10:45:11;100404.38;;;20.92
45034;BMP280;30771;47.988;-4.186;2023-05-02T10:47:36;100416.44;;;20.95
45034;BMP280;30771;47.988;-4.186;2023-05-02T10:50:02;100420.97;;;20.94
45034;BMP280;30771;47.988;-4.186;2023-05-02T11:00:23;100446.31;;;21.12
45034;BMP280;30771;47.988;-4.186;2023-05-02T11:02:48;100475.81;;;21.07
45034;BMP280;30771;47.988;-4.186;2023-05-02T11:05:13;100487.06;;;21.04
45034;BMP280;30771;47.988;-4.186;2023-05-02T11:07:38;100491.09;;;21.01
45034;BMP280;30771;47.988;-4.186;2023-05-02T11:15:57;100501.50;;;21.08
45034;BMP280;30771;47.988;-4.186;2023-05-02T11:18:04;100508.19;;;21.10
45034;BMP280;30771;47.988;-4.186;2023-05-02T11:20:29;100508.16;;;21.20
45034;BMP280;30771;47.988;-4.186;2023-05-02T11:22:55;100519.38;;;21.27
45034;BMP280;30771;47.988;-4.186;2023-05-02T11:25:33;100514.56;;;21.34
45034;BMP280;30771;47.988;-4.186;2023-05-02T11:27:59;100523.66;;;21.38
45034;BMP280;30771;47.988;-4.186;2023-05-02T11:30:37;100519.06;;;21.44
45034;BMP280;30771;47.988;-4.186;2023-05-02T11:35:28;100534.84;;;21.50
45034;BMP280;30771;47.988;-4.186;2023-05-02T11:37:53;100547.19;;;21.46
45034;BMP280;30771;47.988;-4.186;2023-05-02T11:40:19;100536.72;;;21.45
45034;BMP280;30771;47.988;-4.186;2023-05-02T11:42:44;100523.31;;;21.45
45034;BMP280;30771;47.988;-4.186;2023-05-02T11:45:09;100547.19;;;21.46
45034;BMP280;30771;47.988;-4.186;2023-05-02T11:47:34;100547.22;;;21.41
45034;BMP280;30771;47.988;-4.186;2023-05-02T11:50:02;100543.94;;;21.44
45034;BMP280;30771;47.988;-4.186;2023-05-02T11:52:28;100528.41;;;21.51
45034;BMP280;30771;47.988;-4.186;2023-05-02T11:54:53;100509.63;;;21.56
45034;BMP280;30771;47.988;-4.186;2023-05-02T11:57:19;100491.09;;;21.60
45034;BMP280;30771;47.988;-4.186;2023-05-02T11:59:53;100469.09;;;21.63
45034;BMP280;30771;47.988;-4.186;2023-05-02T12:02:19;100474.44;;;21.63
45034;BMP280;30771;47.988;-4.186;2023-05-02T12:04:44;100484.91;;;21.59
45034;BMP280;30771;47.988;-4.186;2023-05-02T12:07:09;100481.44;;;21.59
45034;BMP280;30771;47.988;-4.186;2023-05-02T12:09:35;100479.88;;;21.53
45034;BMP280;30771;47.988;-4.186;2023-05-02T12:12:00;100479.59;;;21.54
45034;BMP280;30771;47.988;-4.186;2023-05-02T12:14:28;100462.69;;;21.59
45034;BMP280;30771;47.988;-4.186;2023-05-02T12:16:54;100473.94;;;21.61
45034;BMP280;30771;47.988;-4.186;2023-05-02T12:19:19;100470.94;;;21.67
45034;BMP280;30771;47.988;-4.186;2023-05-02T12:21:44;100466.63;;;21.71
45034;BMP280;30771;47.988;-4.186;2023-05-02T12:24:10;100469.28;;;21.77
45034;BMP280;30771;47.988;-4.186;2023-05-02T12:26:35;100485.34;;;21.77
45034;BMP280;30771;47.988;-4.186;2023-05-02T12:29:00;100490.72;;;21.77
45034;BMP280;30771;47.988;-4.186;2023-05-02T12:31:25;100509.50;;;21.71
45034;BMP280;30771;47.988;-4.186;2023-05-02T12:33:50;100520.47;;;21.75
45034;BMP280;30771;47.988;-4.186;2023-05-02T12:36:16;100509.72;;;21.80
45034;BMP280;30771;47.988;-4.186;2023-05-02T12:38:46;100508.09;;;21.84
45034;BMP280;30771;47.988;-4.186;2023-05-02T12:41:11;100507.53;;;21.87
45034;BMP280;30771;47.988;-4.186;2023-05-02T12:43:46;100515.06;;;21.90
45034;BMP280;30771;47.988;-4.186;2023-05-02T12:46:11;100524.97;;;21.90
45034;BMP280;30771;47.988;-4.186;2023-05-02T12:48:37;100530.03;;;21.91
45034;BMP280;30771;47.988;-4.186;2023-05-02T12:51:02;100529.78;;;21.88
45034;BMP280;30771;47.988;-4.186;2023-05-02T12:53:39;100527.94;;;21.88
45034;BMP280;30771;47.988;-4.186;2023-05-02T12:56:04;100515.84;;;21.91
45034;BMP280;30771;47.988;-4.186;2023-05-02T12:58:30;100521.72;;;21.93
45034;BMP280;30771;47.988;-4.186;2023-05-02T13:01:03;100531.09;;;21.95
45034;BMP280;30771;47.988;-4.186;2023-05-02T13:03:29;100529.50;;;21.94
45034;BMP280;30771;47.988;-4.186;2023-05-02T13:05:54;100532.94;;;22.00
45034;BMP280;30771;47.988;-4.186;2023-05-02T13:08:19;100538.84;;;21.97
45034;BMP280;30771;47.988;-4.186;2023-05-02T13:10:44;100564.38;;;21.89
45034;BMP280;30771;47.988;-4.186;2023-05-02T13:13:09;100571.38;;;21.90
45034;BMP280;30771;47.988;-4.186;2023-05-02T13:15:34;100587.97;;;21.87
45034;BMP280;30771;47.988;-4.186;2023-05-02T13:18:00;100586.16;;;21.78
45034;BMP280;30771;47.988;-4.186;2023-05-02T13:20:25;100585.63;;;21.76
45034;BMP280;30771;47.988;-4.186;2023-05-02T13:22:50;100575.13;;;21.84
45034;BMP280;30771;47.988;-4.186;2023-05-02T13:25:15;100578.59;;;21.90
45034;BMP280;30771;47.988;-4.186;2023-05-02T13:27:40;100587.69;;;21.94
45034;BMP280;30771;47.988;-4.186;2023-05-02T13:30:06;100608.28;;;21.98
45034;BMP280;30771;47.988;-4.186;2023-05-02T13:32:33;100610.16;;;22.03
45034;BMP280;30771;47.988;-4.186;2023-05-02T13:34:58;100614.44;;;21.99
45034;BMP280;30771;47.988;-4.186;2023-05-02T13:37:23;100632.72;;;21.97
45034;BMP280;30771;47.988;-4.186;2023-05-02T13:39:48;100639.41;;;21.99
45034;BMP280;30771;47.988;-4.186;2023-05-02T13:42:13;100643.91;;;22.09
45034;BMP280;30771;47.988;-4.186;2023-05-02T13:44:38;100651.16;;;22.08
45034;BMP280;30771;47.988;-4.186;2023-05-02T13:47:04;100678.81;;;22.04
45034;BMP280;30771;47.988;-4.186;2023-05-02T13:49:29;100678.25;;;22.07
45034;BMP280;30771;47.988;-4.186;2023-05-02T13:51:54;100717.44;;;22.03
45034;BMP280;30771;47.988;-4.186;2023-05-02T13:54:19;100726.59;;;21.97
45034;BMP280;30771;47.988;-4.186;2023-05-02T13:56:44;100745.38;;;21.92
45034;BMP280;30771;47.988;-4.186;2023-05-02T13:59:10;100747.50;;;21.95
45034;BMP280;30771;47.988;-4.186;2023-05-02T14:01:35;100781.84;;;21.88
45034;BMP280;30771;47.988;-4.186;2023-05-02T14:04:00;100797.69;;;21.74
45034;BMP280;30771;47.988;-4.186;2023-05-02T14:06:25;100795.84;;;21.69
45034;BMP280;30771;47.988;-4.186;2023-05-02T14:08:51;100793.16;;;21.64
45034;BMP280;30771;47.988;-4.186;2023-05-02T14:11:16;100781.38;;;21.60
45034;BMP280;30771;47.988;-4.186;2023-05-02T14:13:41;100793.13;;;21.59
45034;BMP280;30771;47.988;-4.186;2023-05-02T14:16:07;100791.81;;;21.62
45034;BMP280;30771;47.988;-4.186;2023-05-02T14:18:32;100798.28;;;21.66
45034;BMP280;30771;47.988;-4.186;2023-05-02T14:20:57;100820.50;;;21.66
45034;BMP280;30771;47.988;-4.186;2023-05-02T14:23:22;100819.16;;;21.69
45034;BMP280;30771;47.988;-4.186;2023-05-02T14:25:47;100830.16;;;21.73
45034;BMP280;30771;47.988;-4.186;2023-05-02T14:28:12;100830.97;;;21.73
45034;BMP280;30771;47.988;-4.186;2023-05-02T14:30:37;100833.38;;;21.75
45034;BMP280;30771;47.988;-4.186;2023-05-02T14:33:03;100826.13;;;21.70
45034;BMP280;30771;47.988;-4.186;2023-05-02T14:35:28;100816.47;;;21.69
45034;BMP280;30771;47.988;-4.186;2023-05-02T14:37:53;100811.38;;;21.67
45034;BMP280;30771;47.988;-4.186;2023-05-02T14:40:18;100806.00;;;21.67
45034;BMP280;30771;47.988;-4.186;2023-05-02T14:42:43;100810.31;;;21.63
45034;BMP280;30771;47.988;-4.186;2023-05-02T14:45:08;100812.19;;;21.48
45034;BMP280;30771;47.988;-4.186;2023-05-02T14:47:34;100809.22;;;21.44
45034;BMP280;30771;47.988;-4.186;2023-05-02T14:49:59;100803.34;;;21.47
45034;BMP280;30771;47.988;-4.186;2023-05-02T14:52:24;100800.94;;;21.56
45034;BMP280;30771;47.988;-4.186;2023-05-02T14:54:49;100793.69;;;21.61
45034;BMP280;30771;47.988;-4.186;2023-05-02T14:57:14;100792.09;;;21.65
45034;BMP280;30771;47.988;-4.186;2023-05-02T14:59:40;100780.81;;;21.68
45034;BMP280;30771;47.988;-4.186;2023-05-02T15:02:05;100784.88;;;21.66
45034;BMP280;30771;47.988;-4.186;2023-05-02T15:04:30;100777.34;;;21.68
45034;BMP280;30771;47.988;-4.186;2023-05-02T15:06:55;100779.47;;;21.76
45034;BMP280;30771;47.988;-4.186;2023-05-02T15:09:21;100778.38;;;21.87
45034;BMP280;30771;47.988;-4.186;2023-05-02T15:11:46;100771.13;;;21.88
45034;BMP280;30771;47.988;-4.186;2023-05-02T15:14:11;100769.50;;;21.87
45034;BMP280;30771;47.988;-4.186;2023-05-02T15:19:25;100750.25;;;21.75
45034;BMP280;30771;47.988;-4.186;2023-05-02T15:21:50;100731.22;;;21.71
45034;BMP280;30771;47.988;-4.186;2023-05-02T15:24:15;100725.09;;;21.65
45034;BMP280;30771;47.988;-4.186;2023-05-02T15:26:41;100731.22;;;21.71
45034;BMP280;30771;47.988;-4.186;2023-05-02T15:29:09;100740.59;;;21.79
45034;BMP280;30771;47.988;-4.186;2023-05-02T15:31:34;100720.78;;;21.69
45034;BMP280;30771;47.988;-4.186;2023-05-02T15:34:00;100726.91;;;21.85
45034;BMP280;30771;47.988;-4.186;2023-05-02T15:36:28;100721.53;;;21.80
45034;BMP280;30771;47.988;-4.186;2023-05-02T15:38:55;100716.19;;;21.85
45034;BMP280;30771;47.988;-4.186;2023-05-02T15:41:20;100718.59;;;21.82
45034;BMP280;30771;47.988;-4.186;2023-05-02T15:43:46;100696.13;;;21.62
45034;BMP280;30771;47.988;-4.186;2023-05-02T15:46:11;100710.31;;;21.73
45034;BMP280;30771;47.988;-4.186;2023-05-02T15:48:36;100720.19;;;21.88
45034;BMP280;30771;47.988;-4.186;2023-05-02T15:51:02;100699.09;;;21.66
45034;BMP280;30771;47.988;-4.186;2023-05-02T15:53:27;100723.72;;;21.78
45034;BMP280;30771;47.988;-4.186;2023-05-02T15:55:53;100711.69;;;21.65
45034;BMP280;30771;47.988;-4.186;2023-05-02T15:58:18;100718.09;;;21.64
45034;BMP280;30771;47.988;-4.186;2023-05-02T16:00:45;100727.22;;;21.68
45034;BMP280;30771;47.988;-4.186;2023-05-02T16:03:10;100705.78;;;21.63
45034;BMP280;30771;47.988;-4.186;2023-05-02T16:05:35;100699.31;;;21.64
45034;BMP280;30771;47.988;-4.186;2023-05-02T16:08:01;100692.13;;;21.55
45034;BMP280;30771;47.988;-4.186;2023-05-02T16:10:26;100693.47;;;21.62
45034;BMP280;30771;47.988;-4.186;2023-05-02T16:12:52;100680.06;;;21.57
45034;BMP280;30771;47.988;-4.186;2023-05-02T16:15:20;100685.09;;;21.69
45034;BMP280;30771;47.988;-4.186;2023-05-02T16:17:46;100677.59;;;21.71
45034;BMP280;30771;47.988;-4.186;2023-05-02T16:20:11;100686.75;;;21.65
45034;BMP280;30771;47.988;-4.186;2023-05-02T16:22:37;100706.31;;;21.71
45034;BMP280;30771;47.988;-4.186;2023-05-02T16:25:02;100700.66;;;21.72
45034;BMP280;30771;47.988;-4.186;2023-05-02T16:27:28;100681.13;;;21.61
45034;BMP280;30771;47.988;-4.186;2023-05-02T16:29:53;100691.53;;;21.73
45034;BMP280;30771;47.988;-4.186;2023-05-02T16:32:19;100678.66;;;21.75
45034;BMP280;30771;47.988;-4.186;2023-05-02T16:34:44;100688.00;;;21.88
45034;BMP280;30771;47.988;-4.186;2023-05-02T16:37:09;100693.41;;;21.78
45034;BMP280;30771;47.988;-4.186;2023-05-02T16:39:34;100698.22;;;21.76
45034;BMP280;30771;47.988;-4.186;2023-05-02T16:42:00;100745.66;;;21.85
45034;BMP280;30771;47.988;-4.186;2023-05-02T16:44:25;100740.03;;;21.82
45034;BMP280;30771;47.988;-4.186;2023-05-02T16:46:50;100758.00;;;21.86
45034;BMP280;30771;47.988;-4.186;2023-05-02T16:49:16;100736.00;;;21.79
45034;BMP280;30771;47.988;-4.186;2023-05-02T16:51:41;100750.72;;;21.92
45034;BMP280;30771;47.988;-4.186;2023-05-02T16:54:08;100728.47;;;21.91
45034;BMP280;30771;47.988;-4.186;2023-05-02T16:56:34;100752.03;;;22.04
45034;BMP280;30771;47.988;-4.186;2023-05-02T16:58:59;100760.34;;;22.08
45034;BMP280;30771;47.988;-4.186;2023-05-02T17:01:24;100750.22;;;21.90
45034;BMP280;30771;47.988;-4.186;2023-05-02T17:03:50;100763.63;;;21.90
45034;BMP280;30771;47.988;-4.186;2023-05-02T17:06:15;100772.50;;;21.80
45034;BMP280;30771;47.988;-4.186;2023-05-02T17:08:40;100785.34;;;21.88
45034;BMP280;30771;47.988;-4.186;2023-05-02T17:11:06;100769.25;;;21.83
45034;BMP280;30771;47.988;-4.186;2023-05-02T17:13:31;100784.53;;;21.83
45034;BMP280;30771;47.988;-4.186;2023-05-02T17:15:56;100786.97;;;21.69
45034;BMP280;30771;47.988;-4.186;2023-05-02T17:18:22;100797.16;;;21.77
45034;BMP280;30771;47.988;-4.186;2023-05-02T17:20:47;100768.50;;;21.62
45034;BMP280;30771;47.988;-4.186;2023-05-02T17:23:12;100781.06;;;21.67
45034;BMP280;30771;47.988;-4.186;2023-05-02T17:25:37;100756.16;;;21.66
45034;BMP280;30771;47.988;-4.186;2023-05-02T17:28:03;100782.94;;;21.77
45034;BMP280;30771;47.988;-4.186;2023-05-02T17:30:29;100762.84;;;21.69
45034;BMP280;30771;47.988;-4.186;2023-05-02T17:32:54;100769.81;;;21.80
45034;BMP280;30771;47.988;-4.186;2023-05-02T17:35:19;100751.06;;;21.70
45034;BMP280;30771;47.988;-4.186;2023-05-02T17:37:44;100754.78;;;21.84
45034;BMP280;30771;47.988;-4.186;2023-05-02T17:40:10;100744.03;;;21.94
45034;BMP280;30771;47.988;-4.186;2023-05-02T17:42:36;100741.81;;;22.11
45034;BMP280;30771;47.988;-4.186;2023-05-02T17:45:01;100754.91;;;22.23
45034;BMP280;30771;47.988;-4.186;2023-05-02T17:47:27;100724.31;;;22.24
45034;BMP280;30771;47.988;-4.186;2023-05-02T17:49:52;100764.31;;;23.07
45034;BMP280;30771;47.988;-4.186;2023-05-02T17:52:17;100824.03;;;24.32
45034;BMP280;30771;47.988;-4.186;2023-05-02T17:54:43;100925.75;;;25.51
45034;BMP280;30771;47.988;-4.186;2023-05-02T17:57:09;100962.84;;;26.32
45034;BMP280;30771;47.988;-4.186;2023-05-02T17:59:37;100987.13;;;26.86
45034;BMP280;30771;47.988;-4.186;2023-05-02T18:02:03;100996.50;;;27.02
45034;BMP280;30771;47.988;-4.186;2023-05-02T18:04:28;100998.13;;;27.03
45034;BMP280;30771;47.988;-4.186;2023-05-02T18:06:53;101020.44;;;26.95
45034;BMP280;30771;47.988;-4.186;2023-05-02T18:09:18;101027.59;;;26.77
45034;BMP280;30771;47.988;-4.186;2023-05-02T18:11:44;101020.09;;;26.47
45034;BMP280;30771;47.988;-4.186;2023-05-02T18:14:09;101030.97;;;26.29
45034;BMP280;30771;47.988;-4.186;2023-05-02T18:16:34;101036.34;;;26.02
45034;BMP280;30771;47.988;-4.186;2023-05-02T18:19:00;101042.13;;;25.77
45034;BMP280;30771;47.988;-4.186;2023-05-02T18:21:25;101037.06;;;25.57
45034;BMP280;30771;47.988;-4.186;2023-05-02T18:23:51;101045.44;;;25.37
45034;BMP280;30771;47.988;-4.186;2023-05-02T18:26:16;101036.19;;;25.43
45034;BMP280;30771;47.988;-4.186;2023-05-02T18:28:41;101036.69;;;25.63
45034;BMP280;30771;47.988;-4.186;2023-05-02T18:31:14;101035.28;;;25.84
45034;BMP280;30771;47.988;-4.186;2023-05-02T18:33:39;101041.78;;;25.83
45034;BMP280;30771;47.988;-4.186;2023-05-02T18:36:05;101055.22;;;25.51
45034;BMP280;30771;47.988;-4.186;2023-05-02T18:38:30;101072.75;;;25.12
45034;BMP280;30771;47.988;-4.186;2023-05-02T18:40:55;101058.00;;;24.57
45034;BMP280;30771;47.988;-4.186;2023-05-02T18:43:21;101068.22;;;24.03
45034;BMP280;30771;47.988;-4.186;2023-05-02T18:45:46;101074.19;;;23.51
45034;BMP280;30771;47.988;-4.186;2023-05-02T18:48:11;101074.66;;;23.05
45034;BMP280;30771;47.988;-4.186;2023-05-02T18:50:36;101067.50;;;22.65
45034;BMP280;30771;47.988;-4.186;2023-05-02T18:53:02;101056.75;;;22.30
45034;BMP280;30771;47.988;-4.186;2023-05-02T18:55:27;101050.06;;;21.98
45034;BMP280;30771;47.988;-4.186;2023-05-02T18:57:52;101023.16;;;21.57
45034;BMP280;30771;47.988;-4.186;2023-05-02T19:00:18;101020.38;;;21.32
45034;BMP280;30771;47.988;-4.186;2023-05-02T19:02:43;101013.00;;;21.08
45034;BMP280;30771;47.988;-4.186;2023-05-02T19:05:08;100978.06;;;20.73
45034;BMP280;30771;47.988;-4.186;2023-05-02T19:07:34;100961.31;;;20.51
45034;BMP280;30771;47.988;-4.186;2023-05-02T19:10:00;100902.00;;;20.17
45034;BMP280;30771;47.988;-4.186;2023-05-02T19:12:25;100874.00;;;19.98
45034;BMP280;30771;47.988;-4.186;2023-05-02T19:14:50;100843.94;;;19.81